Flugplatz Munich International

Bericht für EDDM

vom 09.08. um 04:20 UTC

Wind 4 kt aus 40°

Sichtweite 10 km oder mehr

gute Sicht, keine Wolken < 5000 ft, keine CB, keine Wettererscheinungen (CAVOK)

Temperatur 11.0°C

Taupunkt 10.0°C

Luftfeuchtigkeit 94%

Luftdruck 1024 hPa

keine wesentliche Wetteränderung innerhalb den nächsten 2 Stunden zu erwarten

EDDM 090420Z AUTO 04004KT CAVOK 11/10 Q1024 NOSIG

Prognose für EDDM

vom 08.08. um 23:00 UTC

Zwischen 00:00 UTC und 06:00 UTC

variable Windrichtung mit 3 kt

Sichtweite 10 km oder mehr

keine signifikanten Wettererscheinungen

keine Wolken


Zwischen 06:00 und 08:00 UTC übergehend zu

Wind 9 kt aus 70°

Sichtweite 10 km oder mehr

keine signifikanten Wettererscheinungen

keine Wolken


Zwischen 16:00 und 18:00 UTC übergehend zu

Wind 4 kt aus 60°

Sichtweite 10 km oder mehr

keine signifikanten Wettererscheinungen

keine Wolken

TAF EDDM 082300Z 0900/1006 VRB03KT CAVOK BECMG 0906/0908 07009KT BECMG 0916/0918 06004KT
Impressum